Arapaho, OK (73620)

12:57 PM CDT on September 16, 2014 (GMT -0500)
Clinton Municipal | Change Station
CLOSE
Current Station
Airport
Location: Clinton,
Elevation: 1614 ft
Nearby Weather Stations
4.0 Earthquake: Guthrie, Oklahoma (21 hours ago)  

Elev 1614 ft 35.54 °N, 98.93 °W | Updated 22 minutes ago

Partly Cloudy
Partly Cloudy
75 °F
Feels Like 75 °F
N
4
Wind Variable Wind from NE

Today
High -- | Low -- °F
--% Chance of Precip.
Yesterday
High -- | Low -- °F
Precip. -- in
7:19 AM 7:41 PM
Last Quarter, 44% visible
Pressure 30.16 in
Visibility 10.0 miles
Clouds Clear
Dew Point 63 °F
Humidity 65%
Rainfall 0.00 in
Snow Depth Not available.
UV 9 out of 12
Pollen 10.10 out of 12
Air Quality Not available.
Flu Activity Not available.
METAR KCLK 161735Z AUTO 05003KT 10SM CLR 24/17 A3016 RMK AO2

More Conditions Fewer Conditions

Pressure 30.16 in
Visibility 10.0 miles
Clouds Clear
Dew Point 63 °F
Humidity 65%
Rainfall 0.00 in
Snow Depth Not available.
UV 9 out of 12
Pollen 10.10 out of 12
Air Quality Not available.
Flu Activity Not available.
METAR KCLK 161735Z AUTO 05003KT 10SM CLR 24/17 A3016 RMK AO2

More Conditions Fewer Conditions

10-Day Weather Forecast

Almanac

Astronomy

Sep. 16, 2014 Rise Set
Actual Time 7:19 AM CDT 7:41 PM CDT
Civil Twilight 6:53 AM CDT 8:06 PM CDT
Nautical Twilight 6:23 AM CDT 8:36 PM CDT
Astronomical Twilight 5:53 AM CDT 9:07 PM CDT
Moon 12:39 AM CDT 2:57 PM CDT
Length of Visible Light 13h 13m
Length of Day
12h 22m
Tomorrow will be 2m 13s shorter.
Last Quarter, 44% of the Moon is Illuminated
Today
Last Quarter
Sep 24
New
Oct 1
First Quarter
Oct 8
Full
Oct 15
Last Quarter

Today's Extremes

State Highs State Lows

Community

WunderPhotos

Upload Photos

1,753,843 photos uploaded!

Nearby

Snow Depth

Station Depth Elevation
No new snow has been reported.

Earthquake Activity

City Distance Mag. Time & Date
Guthrie, Oklahoma 87 miles 2.7 4:00 PM CDT
2014-09-15
Guthrie, Oklahoma 87 miles 3.2 3:14 PM CDT
2014-09-15
Guthrie, Oklahoma 87 miles 4.0 3:08 PM CDT
2014-09-15
Enid, Oklahoma 91 miles 3.1 8:27 AM CDT
2014-09-15
Minimum magnitude displayed is 2.5.

Coastal Water Temperatures

Place Temperature
No Stations Reporting

Nearby Weather Stations